Time;durP1;ratioP1;P1;durP2;ratioP2;P2;SDS_P1;SDS_P2;PMS_P1;PMS_P2;Temp;Humidity;BMP_temperature;BMP_pressure;BME280_temperature;BME280_humidity;BME280_pressure;Samples;Min_cycle;Max_cycle;Signal;HPM_P1;HPM_P2
2022/04/18 00:00:40;;;;;;;2.13;1.33;;;6.00;98.00;;;;;;6274451;22;20417;-70
2022/04/18 00:03:07;;;;;;;1.60;1.47;;;5.90;98.00;;;;;;6274301;22;20719;-70
2022/04/18 00:05:35;;;;;;;1.30;1.10;;;5.90;98.00;;;;;;6274091;22;20413;-70
2022/04/18 00:08:03;;;;;;;1.40;1.00;;;6.00;98.00;;;;;;6273935;22;20444;-69
2022/04/18 00:10:30;;;;;;;1.37;1.33;;;6.20;98.00;;;;;;6274375;22;20409;-69
2022/04/18 00:12:57;;;;;;;1.20;1.00;;;6.00;98.00;;;;;;6273969;22;20459;-70
2022/04/18 00:15:24;;;;;;;1.50;1.30;;;6.00;98.00;;;;;;6274360;22;20416;-69
2022/04/18 00:17:52;;;;;;;1.20;1.00;;;5.90;98.00;;;;;;6274307;22;20494;-69
2022/04/18 00:20:20;;;;;;;1.37;1.10;;;6.00;98.00;;;;;;6247530;22;20468;-69
2022/04/18 00:22:47;;;;;;;1.77;1.13;;;6.20;98.00;;;;;;6247182;22;20389;-69
2022/04/18 00:25:14;;;;;;;1.20;1.10;;;6.30;98.00;;;;;;6274277;22;20397;-69
2022/04/18 00:27:41;;;;;;;1.30;1.20;;;6.40;98.00;;;;;;6274431;22;20470;-69
2022/04/18 00:30:09;;;;;;;1.30;1.10;;;6.00;98.00;;;;;;6274210;22;20416;-69
2022/04/18 00:32:36;;;;;;;1.20;1.07;;;6.00;98.00;;;;;;6274306;22;20445;-69
2022/04/18 00:35:06;;;;;;;1.77;1.63;;;5.90;98.00;;;;;;6275731;22;20414;-70
2022/04/18 00:37:33;;;;;;;1.40;1.10;;;5.50;98.00;;;;;;6276350;22;20435;-70
2022/04/18 00:40:08;;;;;;;1.50;1.20;;;5.30;98.00;;;;;;6276795;22;20505;-69
2022/04/18 00:42:35;;;;;;;1.20;1.00;;;5.50;98.00;;;;;;6276805;22;20449;-70
2022/04/18 00:45:02;;;;;;;1.73;1.40;;;5.60;98.00;;;;;;6275965;22;20421;-69
2022/04/18 00:47:29;;;;;;;1.30;1.00;;;5.60;98.00;;;;;;6275819;22;20456;-69
2022/04/18 00:49:57;;;;;;;1.73;1.23;;;5.40;98.00;;;;;;6277216;22;20943;-69
2022/04/18 00:52:26;;;;;;;1.20;1.00;;;5.30;98.00;;;;;;6276415;22;20439;-69
2022/04/18 00:54:57;;;;;;;1.20;1.00;;;5.40;98.00;;;;;;6277342;22;20400;-69
2022/04/18 00:57:25;;;;;;;1.20;0.90;;;5.20;98.00;;;;;;6276141;22;20414;-69
2022/04/18 00:59:52;;;;;;;1.70;1.30;;;5.10;98.00;;;;;;6276169;22;20476;-69
2022/04/18 01:02:19;;;;;;;1.20;1.10;;;5.30;98.00;;;;;;6276129;22;20470;-69
2022/04/18 01:04:46;;;;;;;2.00;1.30;;;5.20;98.00;;;;;;6276056;22;20746;-69
2022/04/18 01:07:13;;;;;;;1.83;1.30;;;5.00;98.00;;;;;;6275794;22;20407;-69
2022/04/18 01:09:41;;;;;;;1.40;1.10;;;4.80;98.00;;;;;;6275424;22;20475;-69
2022/04/18 01:12:09;;;;;;;3.07;1.97;;;4.90;98.00;;;;;;6275602;22;20455;-69
2022/04/18 01:14:36;;;;;;;2.47;1.30;;;5.00;98.00;;;;;;6275668;22;20415;-70
2022/04/18 01:17:03;;;;;;;1.87;1.50;;;5.00;98.00;;;;;;6276120;22;20448;-69
2022/04/18 01:19:30;;;;;;;1.20;1.00;;;4.90;98.00;;;;;;6249462;22;20420;-69
2022/04/18 01:22:00;;;;;;;1.20;1.00;;;4.80;98.00;;;;;;6275756;22;20412;-69
2022/04/18 01:30:01;;;;;;;1.20;1.07;;;4.80;98.00;;;;;;6252618;22;21046;-69
2022/04/18 01:32:29;;;;;;;1.40;1.23;;;4.70;98.00;;;;;;6275356;22;20414;-69
2022/04/18 01:34:57;;;;;;;1.23;1.13;;;4.70;98.00;;;;;;6275441;22;20435;-69
2022/04/18 01:37:27;;;;;;;1.43;1.30;;;4.80;98.00;;;;;;6275342;22;20425;-69
2022/04/18 01:39:54;;;;;;;1.30;1.10;;;4.70;98.00;;;;;;6276104;22;20398;-69
2022/04/18 01:42:21;;;;;;;1.40;1.27;;;4.60;98.00;;;;;;6275333;22;20910;-69
2022/04/18 01:44:48;;;;;;;1.20;0.90;;;4.40;98.00;;;;;;6275118;22;20794;-69
2022/04/18 01:47:15;;;;;;;1.20;1.10;;;4.60;98.00;;;;;;6275812;22;20772;-69
2022/04/18 01:49:42;;;;;;;1.20;1.07;;;4.60;98.00;;;;;;6275141;22;20499;-69
2022/04/18 01:52:09;;;;;;;1.20;1.00;;;4.60;98.00;;;;;;6275539;22;20403;-69
2022/04/18 01:54:38;;;;;;;1.20;1.07;;;4.50;98.00;;;;;;6248432;22;20401;-69
2022/04/18 01:57:05;;;;;;;1.50;1.40;;;4.40;98.00;;;;;;6275629;22;20435;-69
2022/04/18 01:59:32;;;;;;;1.20;1.00;;;4.40;98.00;;;;;;6275436;22;20793;-69
2022/04/18 02:02:00;;;;;;;1.30;1.20;;;4.50;98.00;;;;;;6275479;22;20412;-69
2022/04/18 02:04:27;;;;;;;2.07;1.30;;;4.40;98.00;;;;;;6275466;22;20665;-69
2022/04/18 02:06:54;;;;;;;1.20;1.10;;;4.40;98.00;;;;;;6275607;22;20433;-69
2022/04/18 02:09:21;;;;;;;1.73;1.23;;;4.30;98.00;;;;;;6275082;22;20733;-69
2022/04/18 02:11:49;;;;;;;1.40;1.40;;;4.40;98.00;;;;;;6275671;22;20414;-69
2022/04/18 02:14:16;;;;;;;1.20;1.20;;;4.40;98.00;;;;;;6275108;22;20418;-69
2022/04/18 02:16:46;;;;;;;1.60;1.30;;;4.30;98.00;;;;;;6275458;22;20413;-69
2022/04/18 02:19:13;;;;;;;1.20;1.00;;;4.30;98.00;;;;;;6274943;22;20430;-69
2022/04/18 02:21:40;;;;;;;3.00;1.10;;;4.30;98.00;;;;;;6274909;22;20946;-69
2022/04/18 02:24:07;;;;;;;1.20;1.00;;;4.30;98.00;;;;;;6275124;22;20415;-69
2022/04/18 02:26:34;;;;;;;1.20;1.00;;;4.30;98.00;;;;;;6275226;22;20458;-69
2022/04/18 02:29:03;;;;;;;2.50;1.50;;;4.20;98.00;;;;;;6275057;22;20425;-69
2022/04/18 02:32:47;;;;;;;1.20;1.07;;;4.20;98.00;;;;;;6275330;22;20404;-69
2022/04/18 02:34:21;;;;;;;1.20;1.00;;;4.10;98.00;;;;;;6274527;22;20423;-69
2022/04/18 02:36:48;;;;;;;1.20;1.00;;;4.10;98.00;;;;;;6275017;22;20455;-69
2022/04/18 02:39:15;;;;;;;1.20;1.10;;;4.10;98.00;;;;;;6275132;22;20446;-69
2022/04/18 02:41:42;;;;;;;1.73;1.63;;;4.20;98.00;;;;;;6274736;22;20452;-69
2022/04/18 02:44:10;;;;;;;1.20;1.20;;;4.20;98.00;;;;;;6274661;22;20455;-69
2022/04/18 02:46:37;;;;;;;1.50;1.33;;;4.20;98.00;;;;;;6275117;22;20434;-69
2022/04/18 02:49:04;;;;;;;1.83;1.50;;;4.30;98.00;;;;;;6274813;22;20520;-69
2022/04/18 02:51:31;;;;;;;1.50;1.20;;;4.10;98.00;;;;;;6274632;22;20454;-69
2022/04/18 02:54:00;;;;;;;1.20;1.00;;;3.90;98.00;;;;;;6274865;22;20399;-69
2022/04/18 02:56:27;;;;;;;1.67;1.20;;;3.90;98.00;;;;;;6275144;22;20418;-69
2022/04/18 02:58:54;;;;;;;1.53;1.30;;;3.80;98.00;;;;;;6274880;22;20457;-69
2022/04/18 03:01:23;;;;;;;1.20;1.00;;;3.80;98.00;;;;;;6274767;22;20443;-69
2022/04/18 03:03:52;;;;;;;1.20;1.00;;;3.80;98.00;;;;;;6274978;22;20718;-69
2022/04/18 03:06:19;;;;;;;1.20;1.00;;;3.60;98.00;;;;;;6274545;22;20970;-69
2022/04/18 03:08:46;;;;;;;1.50;1.30;;;3.60;98.00;;;;;;6274622;22;20473;-69
2022/04/18 03:11:13;;;;;;;1.73;1.33;;;3.40;98.00;;;;;;6274988;22;20618;-69
2022/04/18 03:13:44;;;;;;;1.60;1.30;;;3.40;98.00;;;;;;6274272;22;20415;-69
2022/04/18 03:16:12;;;;;;;1.20;1.10;;;3.40;98.00;;;;;;6274468;22;20489;-69
2022/04/18 03:18:40;;;;;;;1.20;1.20;;;3.30;98.00;;;;;;6274592;22;20477;-69
2022/04/18 03:21:10;;;;;;;1.20;1.00;;;3.20;98.00;;;;;;6274809;22;20413;-69
2022/04/18 03:23:37;;;;;;;1.40;1.27;;;3.30;98.00;;;;;;6274226;22;20503;-69
2022/04/18 03:26:04;;;;;;;1.27;1.20;;;3.30;98.00;;;;;;6274675;22;20414;-69
2022/04/18 03:28:32;;;;;;;1.20;1.10;;;3.40;98.00;;;;;;6274267;22;20419;-69
2022/04/18 03:30:59;;;;;;;2.30;1.53;;;3.40;98.00;;;;;;6275310;22;20421;-69
2022/04/18 03:33:26;;;;;;;3.20;1.57;;;3.50;98.00;;;;;;6247497;22;20806;-69
2022/04/18 03:41:23;;;;;;;1.40;1.30;;;3.50;98.00;;;;;;6274744;22;20872;-69
2022/04/18 03:43:51;;;;;;;1.40;1.20;;;3.50;98.00;;;;;;6274153;22;20472;-69
2022/04/18 03:46:18;;;;;;;1.20;1.00;;;3.40;98.00;;;;;;6274882;22;20467;-69
2022/04/18 03:48:46;;;;;;;1.20;1.00;;;3.40;98.00;;;;;;6247273;22;20949;-69
2022/04/18 03:51:14;;;;;;;1.20;1.10;;;3.40;98.00;;;;;;6274670;22;20413;-69
2022/04/18 03:53:41;;;;;;;2.40;1.63;;;3.30;98.00;;;;;;6247536;22;20409;-69
2022/04/18 03:56:08;;;;;;;1.50;1.23;;;3.30;98.00;;;;;;6247525;22;20413;-69
2022/04/18 03:58:35;;;;;;;1.30;1.00;;;3.20;98.00;;;;;;6274608;22;20399;-69
2022/04/18 04:01:02;;;;;;;1.20;1.00;;;3.30;98.00;;;;;;6274400;22;20785;-69
2022/04/18 04:03:29;;;;;;;1.57;1.33;;;3.50;98.00;;;;;;6274370;22;20404;-69
2022/04/18 04:05:56;;;;;;;1.87;1.57;;;3.50;98.00;;;;;;6274031;22;20927;-69
2022/04/18 04:08:25;;;;;;;1.20;1.10;;;3.50;98.00;;;;;;6273934;22;20414;-69
2022/04/18 04:10:52;;;;;;;1.30;1.10;;;3.40;98.00;;;;;;6276386;22;20780;-69
2022/04/18 04:13:19;;;;;;;1.40;1.10;;;3.30;98.00;;;;;;6248991;22;20755;-69
2022/04/18 04:15:47;;;;;;;1.20;1.03;;;3.20;98.00;;;;;;6276560;22;20403;-69
2022/04/18 04:18:14;;;;;;;1.20;1.00;;;3.20;98.00;;;;;;6276423;22;20424;-69
2022/04/18 04:20:41;;;;;;;1.20;1.00;;;3.40;98.00;;;;;;6276056;22;20436;-69
2022/04/18 04:23:08;;;;;;;1.20;0.97;;;3.60;98.00;;;;;;6276371;22;20436;-69
2022/04/18 04:25:36;;;;;;;1.40;1.17;;;3.80;98.00;;;;;;6276116;22;20925;-69
2022/04/18 04:28:03;;;;;;;1.40;1.30;;;3.70;98.00;;;;;;6276125;22;20414;-69
2022/04/18 04:30:33;;;;;;;1.70;1.60;;;3.60;98.00;;;;;;6276331;22;20445;-69
2022/04/18 04:33:00;;;;;;;1.20;1.20;;;3.30;98.00;;;;;;6276235;22;20463;-69
2022/04/18 04:35:27;;;;;;;1.20;1.00;;;3.00;98.00;;;;;;6275969;22;21045;-69
2022/04/18 04:37:54;;;;;;;1.77;1.47;;;3.00;98.00;;;;;;6275953;22;20418;-69
2022/04/18 04:40:21;;;;;;;1.20;1.00;;;2.80;98.00;;;;;;6276338;22;20921;-69
2022/04/18 04:42:50;;;;;;;1.30;1.20;;;2.80;98.00;;;;;;6276063;22;20416;-69
2022/04/18 04:45:17;;;;;;;2.17;1.10;;;2.80;98.00;;;;;;6276343;22;20455;-69
2022/04/18 04:47:44;;;;;;;2.90;1.67;;;2.80;98.00;;;;;;6275961;22;21018;-69
2022/04/18 04:50:11;;;;;;;1.20;1.10;;;2.80;98.00;;;;;;6275742;22;20430;-69
2022/04/18 04:52:38;;;;;;;1.20;1.00;;;2.80;98.00;;;;;;6276022;22;20413;-69
2022/04/18 04:55:08;;;;;;;2.07;1.67;;;2.90;98.00;;;;;;6276013;22;20416;-69
2022/04/18 04:57:35;;;;;;;1.70;1.33;;;2.80;98.00;;;;;;6276242;22;20393;-69
2022/04/18 05:00:05;;;;;;;1.73;1.30;;;2.70;98.00;;;;;;6275978;22;20452;-69
2022/04/18 05:02:32;;;;;;;2.83;1.73;;;2.80;98.00;;;;;;6276110;22;20637;-69
2022/04/18 05:04:59;;;;;;;1.20;1.10;;;2.90;98.00;;;;;;6275984;22;20401;-69
2022/04/18 05:07:26;;;;;;;1.93;1.43;;;3.20;98.00;;;;;;6275778;22;20461;-69
2022/04/18 05:09:53;;;;;;;1.60;1.23;;;3.20;98.00;;;;;;6275976;22;20426;-69
2022/04/18 05:12:21;;;;;;;1.87;1.73;;;3.10;98.00;;;;;;6276055;22;20471;-69
2022/04/18 05:14:48;;;;;;;1.63;1.50;;;2.90;98.00;;;;;;6275826;22;20421;-69
2022/04/18 05:17:16;;;;;;;2.03;1.83;;;2.90;98.00;;;;;;6275984;22;20405;-69
2022/04/18 05:19:45;;;;;;;1.40;1.10;;;2.90;98.00;;;;;;6275642;22;20470;-69
2022/04/18 05:22:12;;;;;;;1.40;1.10;;;2.70;98.00;;;;;;6275921;22;20395;-69
2022/04/18 05:24:40;;;;;;;1.20;1.00;;;2.70;98.00;;;;;;6248712;22;20409;-69
2022/04/18 05:27:08;;;;;;;1.20;1.00;;;2.70;98.00;;;;;;6249151;22;20424;-69
2022/04/18 05:29:35;;;;;;;1.20;1.00;;;2.80;98.00;;;;;;6275727;22;20449;-69
2022/04/18 05:32:01;;;;;;;1.40;1.33;;;2.90;98.00;;;;;;6275439;22;20470;-69
2022/04/18 05:34:30;;;;;;;1.30;1.10;;;3.00;98.00;;;;;;6275615;22;20453;-69
2022/04/18 05:36:57;;;;;;;1.20;1.00;;;3.30;98.00;;;;;;6276150;22;20409;-69
2022/04/18 05:39:23;;;;;;;1.20;1.10;;;3.40;98.00;;;;;;6275573;22;20411;-69
2022/04/18 05:41:50;;;;;;;1.20;1.17;;;3.50;98.00;;;;;;6275780;22;20728;-69
2022/04/18 05:44:17;;;;;;;1.47;1.43;;;3.50;98.00;;;;;;6275112;22;20433;-69
2022/04/18 05:46:44;;;;;;;1.40;1.20;;;3.50;98.00;;;;;;6275286;22;20419;-69
2022/04/18 05:49:11;;;;;;;3.37;1.20;;;3.40;98.00;;;;;;6275487;22;20430;-69
2022/04/18 05:51:39;;;;;;;1.20;1.13;;;3.40;98.00;;;;;;6275685;22;20402;-69
2022/04/18 05:54:07;;;;;;;1.40;1.17;;;3.50;98.00;;;;;;6275415;22;20798;-69
2022/04/18 05:56:34;;;;;;;1.40;1.00;;;3.60;98.00;;;;;;6275584;22;20413;-69
2022/04/18 05:59:01;;;;;;;1.27;1.20;;;3.70;98.00;;;;;;6275522;22;20779;-69
2022/04/18 06:01:29;;;;;;;1.33;1.20;;;3.80;98.00;;;;;;6275451;22;20425;-69
2022/04/18 06:03:56;;;;;;;1.30;1.20;;;4.10;98.00;;;;;;6275472;22;20493;-69
2022/04/18 06:06:23;;;;;;;1.50;1.40;;;4.30;98.00;;;;;;6248484;22;20456;-69
2022/04/18 06:08:51;;;;;;;1.40;1.10;;;4.50;98.00;;;;;;6276053;22;20425;-69
2022/04/18 06:11:18;;;;;;;1.80;1.37;;;4.70;98.00;;;;;;6275888;22;20467;-69
2022/04/18 06:13:45;;;;;;;1.77;1.67;;;4.80;98.00;;;;;;6276029;22;20403;-69
2022/04/18 06:16:12;;;;;;;3.00;1.63;;;4.90;98.00;;;;;;6249069;22;20404;-69
2022/04/18 06:18:39;;;;;;;1.60;1.57;;;5.00;98.00;;;;;;6275605;22;20439;-69
2022/04/18 06:21:07;;;;;;;1.63;1.20;;;5.10;98.00;;;;;;6276029;22;20434;-70
2022/04/18 06:23:34;;;;;;;1.40;1.10;;;5.10;98.00;;;;;;6275753;22;20410;-70
2022/04/18 06:26:02;;;;;;;1.30;1.10;;;5.20;98.00;;;;;;6275265;22;20398;-70
2022/04/18 06:28:29;;;;;;;1.43;1.17;;;5.30;98.00;;;;;;6275155;22;20446;-70
2022/04/18 06:30:56;;;;;;;1.20;1.20;;;5.30;98.00;;;;;;6275040;22;20478;-70
2022/04/18 06:33:23;;;;;;;3.20;1.77;;;5.40;98.00;;;;;;6274594;22;20442;-70
2022/04/18 06:35:50;;;;;;;1.53;1.10;;;5.50;98.00;;;;;;6275346;22;20718;-70
2022/04/18 06:38:17;;;;;;;1.20;1.20;;;5.60;98.00;;;;;;6274726;22;20422;-70
2022/04/18 06:40:44;;;;;;;1.57;1.20;;;5.80;98.00;;;;;;6274835;22;20414;-69
2022/04/18 06:43:13;;;;;;;1.20;1.20;;;6.00;98.00;;;;;;6274857;22;20908;-69
2022/04/18 06:45:41;;;;;;;1.83;1.50;;;6.30;98.00;;;;;;6248276;22;20469;-68
2022/04/18 06:48:08;;;;;;;1.60;1.23;;;6.50;98.00;;;;;;6247562;22;20540;-68
2022/04/18 06:50:35;;;;;;;2.13;1.60;;;6.60;98.00;;;;;;6274968;22;20436;-68
2022/04/18 06:53:02;;;;;;;1.53;1.50;;;6.80;98.00;;;;;;6274832;22;20454;-68
2022/04/18 06:56:58;;;;;;;1.30;1.20;;;7.00;98.00;;;;;;6274559;22;20397;-68
2022/04/18 06:58:17;;;;;;;1.20;1.07;;;7.20;98.00;;;;;;6274447;22;20411;-68
2022/04/18 07:00:44;;;;;;;2.43;1.57;;;7.40;98.00;;;;;;6274937;22;20510;-69
2022/04/18 07:03:11;;;;;;;1.47;1.43;;;7.40;98.00;;;;;;6274858;22;20471;-68
2022/04/18 07:05:40;;;;;;;1.20;1.03;;;7.50;98.00;;;;;;6274541;22;20398;-68
2022/04/18 07:08:07;;;;;;;2.23;1.33;;;7.70;98.00;;;;;;6274431;22;20418;-68
2022/04/18 07:10:34;;;;;;;1.40;1.23;;;7.80;98.00;;;;;;6274367;22;20437;-68
2022/04/18 07:13:01;;;;;;;3.87;1.93;;;7.90;97.80;;;;;;6274627;22;20612;-68
2022/04/18 07:15:29;;;;;;;1.20;1.00;;;8.00;97.30;;;;;;6274299;22;20417;-68
2022/04/18 07:17:56;;;;;;;1.30;1.10;;;8.10;97.90;;;;;;6275001;22;20725;-68
2022/04/18 07:20:23;;;;;;;2.03;1.20;;;8.20;96.70;;;;;;6275087;22;20456;-68
2022/04/18 07:22:50;;;;;;;1.30;1.20;;;8.20;97.30;;;;;;6275405;22;20446;-68
2022/04/18 07:25:18;;;;;;;1.20;1.00;;;8.30;96.80;;;;;;6274849;22;20424;-69
2022/04/18 07:27:45;;;;;;;1.40;1.27;;;8.50;96.70;;;;;;6274723;22;20408;-69
2022/04/18 07:30:12;;;;;;;1.73;1.20;;;8.70;97.50;;;;;;6274133;22;20432;-69
2022/04/18 07:32:41;;;;;;;3.50;1.73;;;8.80;96.50;;;;;;6247643;22;20402;-69
2022/04/18 07:35:10;;;;;;;1.73;1.47;;;8.90;96.40;;;;;;6274241;22;20735;-69
2022/04/18 07:37:37;;;;;;;1.40;1.10;;;9.20;97.40;;;;;;6274130;22;20451;-69
2022/04/18 07:40:07;;;;;;;1.67;1.60;;;9.40;95.20;;;;;;6274354;22;20419;-69
2022/04/18 07:42:34;;;;;;;2.33;1.47;;;9.60;94.30;;;;;;6274093;22;20760;-69
2022/04/18 07:45:01;;;;;;;1.73;1.13;;;9.80;93.60;;;;;;6273925;22;20428;-69
2022/04/18 07:47:28;;;;;;;1.53;1.30;;;9.90;93.70;;;;;;6271370;22;20412;-69
2022/04/18 07:49:56;;;;;;;1.40;1.10;;;10.00;93.70;;;;;;6273789;22;20894;-69
2022/04/18 07:52:24;;;;;;;1.20;1.00;;;10.20;92.00;;;;;;6247250;22;20416;-69
2022/04/18 07:54:50;;;;;;;2.17;1.53;;;10.40;91.90;;;;;;6247661;22;20475;-69
2022/04/18 07:57:17;;;;;;;8.27;2.33;;;10.70;91.10;;;;;;6274556;22;20470;-69
2022/04/18 07:59:45;;;;;;;2.20;1.47;;;10.90;89.20;;;;;;6274236;22;20401;-69
2022/04/18 08:02:12;;;;;;;1.30;1.10;;;11.10;88.30;;;;;;6274382;22;20435;-69
2022/04/18 08:04:39;;;;;;;1.50;1.30;;;11.20;86.90;;;;;;6274394;22;20413;-69
2022/04/18 08:07:08;;;;;;;1.60;1.50;;;11.30;86.90;;;;;;6274253;22;20420;-69
2022/04/18 08:09:35;;;;;;;2.73;1.90;;;11.50;86.20;;;;;;6274491;22;20773;-70
2022/04/18 08:12:03;;;;;;;1.50;1.20;;;11.60;86.50;;;;;;6271540;22;20428;-69
2022/04/18 08:14:30;;;;;;;1.90;1.57;;;11.60;85.60;;;;;;6246498;22;20404;-69
2022/04/18 08:16:57;;;;;;;1.30;1.30;;;11.80;84.80;;;;;;6272991;22;20447;-68
2022/04/18 08:19:24;;;;;;;1.30;1.10;;;11.90;86.10;;;;;;6272901;22;20412;-68
2022/04/18 08:21:51;;;;;;;1.63;1.30;;;12.10;86.00;;;;;;6273568;22;20397;-69
2022/04/18 08:24:20;;;;;;;1.80;1.60;;;12.20;85.90;;;;;;6273586;22;20428;-69
2022/04/18 08:26:49;;;;;;;1.30;1.20;;;12.40;85.70;;;;;;6273177;22;20407;-69
2022/04/18 08:29:18;;;;;;;1.30;1.20;;;12.50;83.30;;;;;;6273209;22;20416;-69
2022/04/18 08:31:45;;;;;;;2.13;1.63;;;12.60;83.00;;;;;;6273236;22;20471;-71
2022/04/18 08:34:13;;;;;;;3.40;2.07;;;12.80;83.00;;;;;;6273185;22;20422;-70
2022/04/18 08:36:40;;;;;;;3.13;1.80;;;13.00;82.30;;;;;;6272020;22;20451;-71
2022/04/18 08:39:11;;;;;;;1.60;1.40;;;13.00;81.90;;;;;;6273080;22;20402;-71
2022/04/18 08:41:44;;;;;;;2.27;1.30;;;13.10;81.70;;;;;;6272713;22;20904;-70
2022/04/18 08:44:12;;;;;;;2.23;1.60;;;13.20;82.90;;;;;;6272551;22;20934;-69
2022/04/18 08:46:42;;;;;;;1.50;1.40;;;13.40;81.30;;;;;;6272759;22;20518;-69
2022/04/18 08:54:41;;;;;;;1.33;1.20;;;13.90;80.00;;;;;;6272927;22;20392;-70
2022/04/18 08:57:14;;;;;;;1.20;1.00;;;14.00;79.70;;;;;;6274727;22;20403;-69
2022/04/18 08:59:41;;;;;;;1.97;1.63;;;14.10;79.10;;;;;;6275030;22;20423;-69
2022/04/18 09:02:08;;;;;;;1.60;1.40;;;14.30;77.30;;;;;;6275199;22;20827;-69
2022/04/18 09:04:35;;;;;;;1.40;1.20;;;14.30;76.70;;;;;;6247985;22;20402;-69
2022/04/18 09:07:10;;;;;;;1.40;1.30;;;14.40;78.00;;;;;;6275158;22;20725;-69
2022/04/18 09:09:38;;;;;;;1.97;1.43;;;14.60;77.90;;;;;;6275626;22;20758;-70
2022/04/18 09:12:06;;;;;;;2.20;1.83;;;14.80;77.30;;;;;;6275533;22;20479;-69
2022/04/18 09:14:37;;;;;;;2.13;1.40;;;14.90;76.30;;;;;;6274781;22;20452;-69
2022/04/18 09:17:04;;;;;;;2.90;1.53;;;14.90;75.20;;;;;;6274905;22;20399;-69
2022/04/18 09:19:33;;;;;;;1.40;1.40;;;15.00;73.50;;;;;;6274785;22;20407;-70
2022/04/18 09:22:03;;;;;;;1.80;1.40;;;15.10;74.60;;;;;;6274873;22;20393;-69
2022/04/18 09:24:34;;;;;;;1.30;1.10;;;15.20;74.60;;;;;;6274255;22;20399;-70
2022/04/18 09:27:07;;;;;;;1.80;1.40;;;15.20;75.20;;;;;;6274415;22;20394;-70
2022/04/18 09:29:38;;;;;;;1.60;1.43;;;15.40;77.20;;;;;;6274277;22;20406;-69
2022/04/18 09:32:08;;;;;;;2.00;1.50;;;15.50;73.60;;;;;;6274682;22;20482;-71
2022/04/18 09:34:36;;;;;;;4.27;1.57;;;15.60;71.40;;;;;;6274579;22;20410;-71
2022/04/18 09:37:17;;;;;;;2.07;1.70;;;15.80;70.90;;;;;;6274264;22;20848;-70
2022/04/18 09:39:52;;;;;;;1.90;1.43;;;15.90;74.80;;;;;;6274588;22;20404;-71
2022/04/18 09:42:22;;;;;;;2.00;1.30;;;16.10;69.90;;;;;;6274510;22;20455;-70
2022/04/18 09:44:51;;;;;;;1.37;1.30;;;16.10;71.60;;;;;;6274156;22;20459;-70
2022/04/18 09:47:19;;;;;;;3.20;1.80;;;16.30;72.40;;;;;;6274647;22;20721;-71
2022/04/18 09:49:47;;;;;;;3.57;1.97;;;16.40;70.00;;;;;;6273645;22;20478;-71
2022/04/18 09:52:16;;;;;;;3.43;2.10;;;16.50;71.00;;;;;;6274108;22;20967;-72
2022/04/18 09:54:45;;;;;;;2.70;1.40;;;16.60;68.90;;;;;;6274377;22;20812;-69
2022/04/18 09:57:12;;;;;;;1.60;1.50;;;16.70;70.60;;;;;;6274487;22;20448;-70
2022/04/18 09:59:41;;;;;;;1.50;1.47;;;16.70;67.60;;;;;;6247377;22;20444;-70
2022/04/18 10:02:13;;;;;;;2.80;1.67;;;16.90;71.00;;;;;;6274321;22;20751;-69
2022/04/18 10:04:42;;;;;;;1.63;1.37;;;17.10;69.90;;;;;;6273930;22;20407;-71
2022/04/18 10:07:10;;;;;;;1.50;1.37;;;17.30;68.60;;;;;;6246728;22;20401;-69
2022/04/18 10:09:40;;;;;;;3.70;2.00;;;17.40;69.60;;;;;;6273578;22;20864;-68
2022/04/18 10:12:09;;;;;;;2.17;1.60;;;17.40;68.90;;;;;;6246829;22;20933;-68
2022/04/18 10:14:37;;;;;;;1.80;1.50;;;17.50;68.50;;;;;;6273891;22;20449;-69
2022/04/18 10:17:05;;;;;;;2.27;1.63;;;17.60;68.60;;;;;;6273942;22;20896;-70
2022/04/18 10:19:58;;;;;;;1.40;1.30;;;17.70;68.00;;;;;;6274136;22;20805;-69
2022/04/18 10:22:41;;;;;;;1.30;1.30;;;17.80;67.20;;;;;;6285152;22;20408;-69
2022/04/18 10:25:26;;;;;;;1.57;1.30;;;17.80;65.20;;;;;;6284778;22;20408;-68
2022/04/18 10:28:05;;;;;;;1.87;1.50;;;17.80;65.00;;;;;;6275116;22;20481;-68
2022/04/18 10:30:49;;;;;;;1.73;1.30;;;17.90;67.50;;;;;;6274635;22;20432;-68
2022/04/18 10:33:17;;;;;;;1.93;1.70;;;18.00;67.20;;;;;;6272521;22;20470;-69
2022/04/18 10:35:53;;;;;;;1.70;1.50;;;18.10;64.80;;;;;;6274152;22;20450;-69
2022/04/18 10:38:26;;;;;;;2.40;1.57;;;18.30;66.70;;;;;;6274245;22;20407;-71
2022/04/18 10:41:14;;;;;;;1.47;1.30;;;18.40;63.70;;;;;;6273876;22;20407;-68
2022/04/18 10:43:59;;;;;;;3.03;1.47;;;18.30;63.00;;;;;;6273660;22;20926;-69
2022/04/18 10:46:26;;;;;;;1.80;1.50;;;18.30;66.00;;;;;;6274135;22;20428;-68
2022/04/18 10:48:56;;;;;;;3.10;1.90;;;18.40;65.90;;;;;;6273701;22;20890;-68
2022/04/18 10:51:34;;;;;;;2.27;1.53;;;18.50;64.50;;;;;;6273365;22;20444;-69
2022/04/18 10:54:11;;;;;;;1.90;1.70;;;18.50;67.00;;;;;;6274061;22;20458;-68
2022/04/18 10:57:05;;;;;;;4.80;1.40;;;18.60;65.30;;;;;;6274132;22;20925;-68
2022/04/18 10:59:33;;;;;;;1.80;1.50;;;18.70;63.80;;;;;;6238731;22;20421;-68
2022/04/18 11:02:01;;;;;;;3.70;1.73;;;18.70;63.70;;;;;;6273477;22;20460;-68
2022/04/18 11:04:29;;;;;;;1.70;1.60;;;18.70;63.60;;;;;;6274084;22;20423;-68
2022/04/18 11:07:02;;;;;;;1.90;1.57;;;18.90;65.00;;;;;;6273917;22;20408;-68
2022/04/18 11:09:31;;;;;;;2.33;1.47;;;19.30;65.00;;;;;;6273888;22;20399;-68
2022/04/18 11:12:08;;;;;;;1.60;1.50;;;19.50;62.40;;;;;;6246451;22;20432;-67
2022/04/18 11:14:51;;;;;;;6.70;1.93;;;19.80;64.60;;;;;;6273603;22;20869;-66
2022/04/18 11:17:39;;;;;;;2.23;1.53;;;20.00;62.30;;;;;;6246549;22;20403;-67
2022/04/18 11:20:25;;;;;;;2.80;1.77;;;20.00;64.50;;;;;;6273807;22;20807;-67
2022/04/18 11:23:17;;;;;;;2.33;1.70;;;20.20;62.70;;;;;;6273691;22;20419;-67
2022/04/18 11:25:58;;;;;;;1.80;1.40;;;20.40;59.90;;;;;;6246885;22;20405;-67
2022/04/18 11:28:32;;;;;;;2.20;1.70;;;20.60;62.80;;;;;;6273898;22;20396;-66
2022/04/18 11:30:59;;;;;;;3.60;1.47;;;20.80;61.50;;;;;;6274009;22;20431;-67
2022/04/18 11:33:26;;;;;;;1.60;1.30;;;21.00;58.80;;;;;;6246992;22;20405;-67
2022/04/18 11:36:01;;;;;;;1.30;1.27;;;21.10;58.90;;;;;;6274853;22;20404;-67
2022/04/18 11:38:30;;;;;;;1.93;1.83;;;20.90;58.40;;;;;;6274481;22;20470;-68
2022/04/18 11:40:57;;;;;;;1.73;1.70;;;21.00;59.10;;;;;;6275139;22;20480;-67
2022/04/18 11:43:24;;;;;;;1.40;1.30;;;20.80;60.90;;;;;;6273665;22;20429;-67
2022/04/18 11:45:51;;;;;;;1.53;1.20;;;21.00;61.40;;;;;;6274248;22;20401;-67
2022/04/18 11:48:22;;;;;;;3.60;1.90;;;21.20;59.80;;;;;;6273479;22;20401;-67
2022/04/18 11:50:49;;;;;;;2.07;1.80;;;21.40;58.70;;;;;;6273081;22;20498;-68
2022/04/18 11:53:16;;;;;;;1.70;1.40;;;21.50;59.60;;;;;;6273321;22;20457;-69
2022/04/18 11:55:46;;;;;;;3.30;1.60;;;21.70;58.90;;;;;;6273318;22;20396;-70
2022/04/18 11:58:19;;;;;;;3.90;1.90;;;21.80;56.70;;;;;;6273413;22;20397;-69
2022/04/18 12:09:03;;;;;;;1.40;1.30;;;22.30;58.60;;;;;;6274533;22;20913;-67
2022/04/18 12:11:36;;;;;;;1.90;1.80;;;22.60;57.40;;;;;;6274018;22;20441;-67
2022/04/18 12:14:03;;;;;;;2.53;1.57;;;22.70;56.40;;;;;;6274377;22;20482;-67
2022/04/18 12:16:32;;;;;;;2.93;1.70;;;22.80;57.00;;;;;;6274432;22;20470;-68
2022/04/18 12:18:59;;;;;;;1.83;1.60;;;22.90;55.70;;;;;;6274322;22;20499;-68
2022/04/18 12:21:27;;;;;;;1.70;1.70;;;22.90;55.90;;;;;;6274038;22;20412;-68
2022/04/18 12:23:56;;;;;;;2.67;1.50;;;23.20;54.70;;;;;;6274267;22;20427;-67
2022/04/18 12:26:26;;;;;;;1.93;1.50;;;23.20;55.50;;;;;;6274922;22;20397;-67
2022/04/18 12:29:00;;;;;;;2.50;2.00;;;23.30;54.50;;;;;;6274783;22;20496;-67
2022/04/18 12:31:29;;;;;;;2.00;1.60;;;23.20;56.10;;;;;;6276875;22;20435;-67
2022/04/18 12:33:57;;;;;;;3.50;2.30;;;23.20;54.90;;;;;;6276802;22;20471;-65
2022/04/18 12:36:25;;;;;;;2.03;1.80;;;23.30;57.00;;;;;;6276720;22;20412;-72
2022/04/18 12:38:53;;;;;;;1.70;1.40;;;23.40;55.90;;;;;;6276665;22;20470;-69
2022/04/18 12:41:30;;;;;;;3.07;1.87;;;23.60;55.00;;;;;;6276776;22;20876;-68
2022/04/18 12:43:59;;;;;;;3.30;2.43;;;23.70;54.20;;;;;;6249253;22;20815;-68
2022/04/18 12:46:29;;;;;;;4.40;1.80;;;24.10;53.00;;;;;;6276479;22;20397;-68
2022/04/18 12:48:57;;;;;;;2.60;1.87;;;24.50;51.20;;;;;;6276587;22;20400;-69
2022/04/18 12:51:35;;;;;;;2.47;1.70;;;24.80;54.50;;;;;;6276119;22;20412;-69
2022/04/18 12:54:02;;;;;;;3.40;1.60;;;24.90;52.80;;;;;;6276240;22;20765;-68
2022/04/18 12:56:29;;;;;;;2.07;1.73;;;24.70;53.30;;;;;;6276284;22;20413;-68
2022/04/18 12:59:06;;;;;;;2.80;1.70;;;24.50;52.20;;;;;;6276393;22;20397;-69
2022/04/18 13:01:35;;;;;;;2.20;1.53;;;24.40;52.30;;;;;;6276211;22;20404;-68
2022/04/18 13:04:20;;;;;;;1.43;1.33;;;24.20;54.20;;;;;;6275875;22;20902;-68
2022/04/18 13:06:57;;;;;;;3.10;1.90;;;24.20;55.40;;;;;;6253407;22;20464;-68
2022/04/18 13:09:25;;;;;;;2.80;1.80;;;24.40;53.50;;;;;;6276087;22;20393;-69
2022/04/18 13:12:01;;;;;;;2.00;1.70;;;24.40;54.00;;;;;;6275489;22;20444;-69
2022/04/18 13:14:29;;;;;;;1.63;1.57;;;24.60;55.40;;;;;;6276136;22;20632;-68
2022/04/18 13:17:06;;;;;;;4.60;1.53;;;24.80;54.00;;;;;;6275504;22;20417;-69
2022/04/18 13:19:33;;;;;;;4.00;2.00;;;24.80;52.70;;;;;;6249255;22;20765;-70
2022/04/18 13:22:00;;;;;;;2.37;1.80;;;24.80;52.50;;;;;;6275920;22;20432;-69
2022/04/18 13:24:27;;;;;;;2.13;1.73;;;24.90;52.90;;;;;;6275964;22;20490;-69
2022/04/18 13:26:55;;;;;;;3.20;1.90;;;24.90;53.30;;;;;;6276118;22;20482;-69